トビリシ の空港の天気 - METARとTAF

トビリシ国際空港 ( UGTB / TBS ) - ジョージア トビリシ
飛行場実況気象(Metar)
観測時間11/18 15:30 GET (11/18 11:30 UTC)
風向・風速静穏 0m/s
視程10km以上
天気現象
少しの雲 雲底高度 1280m
気温13℃
湿度62%
気圧1026hPa
METARUGTB 181130Z 00000KT 9999 FEW042 13/06 Q1026 R31L/CLRD70 NOSIG
過去の天気等 Google飛行場航空写真 Wunderground天気予報

過去48時間のMETAR

飛行場予報(TAF)
発表時間: 11/18 15:00 GET (11/18 11:00 UTC)
予報対象時間: 18日16時 GET ~ 19日16時 GET
風向・風速不定 1m/s
視程10km以上
全天の8割程度の雲 雲底高度 1,220m
18日19時 GET ~ 18日22時 GET に徐々に
視程4,500m
天気現象もや
全天の8割程度の雲 雲底高度 460m
全天を覆う雲 雲底高度 760m
19日3時 GET ~ 19日9時 GET に一時的に
視程1,000m
天気現象霧雨 もや
全天を覆う雲 雲底高度 120m
19日9時 GET ~ 19日12時 GET に徐々に
視程10km以上
天気現象運行に影響にある天気現象が終了
全天の4割程度の雲 雲底高度 1,220m
TAF UGTB 181100Z 1812/1912 VRB02KT 9999 BKN040 TX14/1912Z TN09/1902Z
BECMG 1815/1818 4500 BR BKN015 OVC025
TEMPO 1823/1905 1000 DZ BR OVC004
BECMG 1905/1908 9999 NSW SCT040